createdAt,value
2022-11-07T00:00:47.470Z,1.16
2022-11-07T00:01:47.033Z,1.47
2022-11-07T00:02:49.999Z,1.28
2022-11-07T00:03:53.454Z,1.61
2022-11-07T00:04:56.635Z,1.55
2022-11-07T00:05:59.615Z,1.38
2022-11-07T00:07:03.227Z,1.45
2022-11-07T00:08:06.094Z,1.34
2022-11-07T00:09:08.954Z,1.22
2022-11-07T00:10:11.846Z,1.32
2022-11-07T00:11:14.706Z,1.41
2022-11-07T00:12:18.514Z,1.40
2022-11-07T00:13:21.284Z,1.50
2022-11-07T00:14:24.253Z,1.39
2022-11-07T00:15:27.028Z,1.46
2022-11-07T00:16:29.924Z,1.48
2022-11-07T00:17:32.564Z,1.32
2022-11-07T00:18:35.341Z,1.40
2022-11-07T00:19:38.536Z,1.40
2022-11-07T00:20:41.301Z,1.20
2022-11-07T00:21:44.073Z,1.32
2022-11-07T00:22:46.847Z,1.32
2022-11-07T00:23:49.612Z,1.27
2022-11-07T00:24:52.490Z,1.53
2022-11-07T00:25:55.367Z,1.58
2022-11-07T00:26:58.858Z,1.54
2022-11-07T00:28:02.172Z,1.35
2022-11-07T00:29:05.228Z,1.10
2022-11-07T00:30:07.782Z,1.08
2022-11-07T00:31:10.657Z,1.37
2022-11-07T00:32:13.733Z,1.36
2022-11-07T00:33:16.927Z,1.32
2022-11-07T00:34:19.989Z,1.22
2022-11-07T00:35:23.085Z,1.40
2022-11-07T00:36:25.961Z,1.09
2022-11-07T00:37:28.945Z,1.24
2022-11-07T00:38:31.702Z,1.17
2022-11-07T00:39:34.787Z,1.30
2022-11-07T00:40:37.758Z,1.35
2022-11-07T00:41:40.535Z,1.55
2022-11-07T00:42:43.411Z,1.37
2022-11-07T00:43:46.588Z,1.63
2022-11-07T00:44:49.662Z,1.42
2022-11-07T00:45:52.537Z,1.36
2022-11-07T00:46:55.521Z,1.55
2022-11-07T00:47:58.495Z,1.35
2022-11-07T00:49:01.274Z,1.31
2022-11-07T00:50:04.033Z,1.25
2022-11-07T00:51:07.653Z,1.53
2022-11-07T00:52:10.502Z,1.53
2022-11-07T00:53:13.623Z,1.49
2022-11-07T00:54:16.756Z,1.57
2022-11-07T00:55:20.255Z,1.45
2022-11-07T00:56:23.435Z,1.29
2022-11-07T00:57:26.429Z,1.43
2022-11-07T00:58:29.385Z,1.32
2022-11-07T00:59:32.824Z,1.37
2022-11-07T01:00:35.953Z,1.55
2022-11-07T01:01:39.307Z,1.46
2022-11-07T01:02:42.743Z,1.72
2022-11-07T01:03:45.825Z,1.33
2022-11-07T01:04:48.994Z,1.45
2022-11-07T01:05:52.381Z,1.32
2022-11-07T01:06:55.567Z,1.41
2022-11-07T01:07:58.545Z,1.34
2022-11-07T01:09:01.721Z,1.12
2022-11-07T01:10:04.392Z,1.19
2022-11-07T01:11:07.268Z,1.30
2022-11-07T01:12:10.339Z,1.42
2022-11-07T01:13:13.655Z,1.26
2022-11-07T01:14:16.569Z,1.37
2022-11-07T01:15:19.386Z,1.31
2022-11-07T01:16:22.557Z,1.27
2022-11-07T01:17:25.539Z,1.22
2022-11-07T01:18:28.300Z,1.05
2022-11-07T01:19:31.498Z,1.32
2022-11-07T01:20:34.163Z,1.32
2022-11-07T01:21:37.046Z,1.25
2022-11-07T01:22:39.905Z,1.23
2022-11-07T01:23:42.885Z,1.37
2022-11-07T01:24:46.180Z,1.38
2022-11-07T01:25:49.140Z,1.49
2022-11-07T01:26:53.875Z,1.52
2022-11-07T01:27:56.849Z,1.32
2022-11-07T01:29:00.012Z,1.45
2022-11-07T01:30:03.213Z,1.28
2022-11-07T01:31:06.176Z,1.21
2022-11-07T01:32:09.060Z,1.54
2022-11-07T01:33:12.207Z,1.23
2022-11-07T01:34:15.222Z,1.42
2022-11-07T01:35:21.367Z,1.38
2022-11-07T01:36:24.250Z,1.24
2022-11-07T01:37:27.330Z,1.26
2022-11-07T01:38:30.612Z,1.17
2022-11-07T01:39:33.580Z,1.27
2022-11-07T01:40:36.864Z,1.35
2022-11-07T01:41:39.961Z,1.39
2022-11-07T01:42:43.032Z,1.51
2022-11-07T01:43:46.098Z,1.27
2022-11-07T01:44:49.175Z,1.29
2022-11-07T01:45:52.171Z,1.32
2022-11-07T01:46:55.141Z,1.28
2022-11-07T01:47:58.216Z,1.44
2022-11-07T01:49:01.201Z,1.35
2022-11-07T01:50:04.496Z,1.29
2022-11-07T01:51:07.461Z,1.37
2022-11-07T01:52:10.130Z,1.68
2022-11-07T01:53:13.202Z,1.19
2022-11-07T01:54:15.984Z,1.15
2022-11-07T01:55:19.055Z,1.23
2022-11-07T01:56:21.921Z,1.21
2022-11-07T01:57:25.103Z,1.18
2022-11-07T01:58:28.189Z,1.17
2022-11-07T01:59:30.957Z,1.45
2022-11-07T02:00:34.048Z,1.28
2022-11-07T02:01:37.122Z,1.10
2022-11-07T02:02:40.183Z,1.08
2022-11-07T02:03:43.384Z,1.34
2022-11-07T02:04:46.399Z,1.28
2022-11-07T02:05:49.435Z,1.00
2022-11-07T02:06:52.417Z,1.08
2022-11-07T02:07:55.607Z,1.15
2022-11-07T02:08:58.887Z,1.25
2022-11-07T02:10:01.873Z,1.37
2022-11-07T02:11:04.744Z,1.30
2022-11-07T02:12:07.414Z,1.12
2022-11-07T02:13:10.075Z,1.22
2022-11-07T02:14:12.746Z,1.13
2022-11-07T02:15:15.947Z,1.45
2022-11-07T02:16:22.173Z,1.22
2022-11-07T02:17:25.359Z,1.34
2022-11-07T02:18:28.662Z,1.40
2022-11-07T02:19:31.943Z,1.27
2022-11-07T02:20:35.233Z,1.08
2022-11-07T02:21:38.408Z,1.30
2022-11-07T02:22:41.278Z,1.27
2022-11-07T02:23:44.241Z,1.14
2022-11-07T02:24:47.329Z,1.11
2022-11-07T02:25:50.093Z,1.15
2022-11-07T02:26:52.765Z,1.03
2022-11-07T02:27:55.534Z,1.20
2022-11-07T02:28:58.311Z,0.92
2022-11-07T02:30:01.105Z,1.04
2022-11-07T02:31:03.957Z,0.88
2022-11-07T02:32:06.628Z,1.09
2022-11-07T02:33:09.513Z,0.98
2022-11-07T02:34:12.483Z,1.02
2022-11-07T02:35:15.380Z,1.18
2022-11-07T02:36:18.234Z,1.08
2022-11-07T02:37:21.102Z,1.25
2022-11-07T02:38:23.980Z,1.10
2022-11-07T02:39:27.173Z,1.18
2022-11-07T02:40:30.143Z,1.14
2022-11-07T02:41:33.219Z,1.15
2022-11-07T02:42:36.393Z,1.03
2022-11-07T02:43:39.804Z,1.09
2022-11-07T02:44:42.975Z,1.04
2022-11-07T02:45:46.053Z,1.36
2022-11-07T02:46:49.220Z,1.11
2022-11-07T02:47:52.209Z,1.12
2022-11-07T02:48:55.500Z,1.15
2022-11-07T02:49:58.781Z,0.95
2022-11-07T02:51:02.068Z,1.10
2022-11-07T02:52:05.248Z,1.19
2022-11-07T02:53:08.634Z,1.15
2022-11-07T02:54:11.813Z,1.00
2022-11-07T02:55:14.486Z,1.05
2022-11-07T02:56:17.333Z,1.32
2022-11-07T02:57:20.336Z,1.08
2022-11-07T02:58:23.409Z,1.08
2022-11-07T02:59:27.277Z,1.12
2022-11-07T03:00:30.388Z,1.08
2022-11-07T03:01:33.681Z,1.19
2022-11-07T03:02:36.911Z,0.94
2022-11-07T03:03:40.265Z,1.12
2022-11-07T03:04:48.862Z,1.09
2022-11-07T03:05:47.745Z,1.04
2022-11-07T03:06:50.809Z,1.02
2022-11-07T03:07:54.003Z,0.93
2022-11-07T03:08:56.965Z,0.96
2022-11-07T03:10:00.045Z,0.92
2022-11-07T03:11:03.846Z,1.12
2022-11-07T03:12:06.723Z,1.24
2022-11-07T03:13:09.701Z,1.29
2022-11-07T03:14:12.467Z,1.18
2022-11-07T03:15:15.346Z,1.08
2022-11-07T03:16:18.178Z,1.38
2022-11-07T03:17:21.304Z,0.90
2022-11-07T03:18:24.494Z,1.19
2022-11-07T03:19:27.363Z,1.08
2022-11-07T03:20:30.344Z,1.17
2022-11-07T03:21:33.620Z,1.12
2022-11-07T03:22:36.795Z,1.12
2022-11-07T03:23:39.881Z,1.19
2022-11-07T03:24:42.762Z,1.20
2022-11-07T03:25:45.636Z,1.06
2022-11-07T03:26:48.628Z,1.00
2022-11-07T03:27:51.702Z,1.04
2022-11-07T03:28:54.972Z,0.98
2022-11-07T03:29:58.155Z,0.83
2022-11-07T03:31:01.439Z,0.96
2022-11-07T03:32:05.331Z,1.19
2022-11-07T03:33:08.640Z,1.19
2022-11-07T03:34:11.390Z,1.04
2022-11-07T03:35:14.370Z,0.93
2022-11-07T03:36:17.345Z,1.02
2022-11-07T03:37:20.530Z,1.17
2022-11-07T03:38:23.393Z,0.98
2022-11-07T03:39:26.279Z,0.86
2022-11-07T03:40:29.145Z,1.22
2022-11-07T03:41:32.040Z,1.32
2022-11-07T03:42:35.115Z,1.20
2022-11-07T03:43:37.773Z,1.31
2022-11-07T03:44:40.701Z,1.20
2022-11-07T03:45:44.053Z,1.45
2022-11-07T03:46:47.012Z,1.23
2022-11-07T03:47:50.122Z,0.94
2022-11-07T03:48:53.987Z,1.18
2022-11-07T03:49:57.174Z,1.28
2022-11-07T03:51:00.277Z,1.05
2022-11-07T03:52:03.340Z,1.16
2022-11-07T03:53:06.817Z,1.08
2022-11-07T03:54:10.215Z,1.11
2022-11-07T03:55:13.130Z,1.11
2022-11-07T03:56:15.873Z,1.21
2022-11-07T03:57:19.126Z,1.28
2022-11-07T03:58:22.029Z,1.17
2022-11-07T03:59:25.092Z,0.95
2022-11-07T04:00:28.185Z,0.98
2022-11-07T04:01:31.598Z,1.07
2022-11-07T04:02:34.628Z,1.04
2022-11-07T04:03:37.727Z,0.97
2022-11-07T04:04:40.906Z,1.08
2022-11-07T04:05:43.895Z,1.02
2022-11-07T04:06:47.057Z,1.19
2022-11-07T04:07:50.135Z,1.14
2022-11-07T04:08:53.430Z,1.05
2022-11-07T04:09:56.813Z,1.07
2022-11-07T04:10:59.889Z,1.07
2022-11-07T04:12:03.067Z,0.82
2022-11-07T04:13:06.654Z,0.94
2022-11-07T04:14:09.435Z,0.93
2022-11-07T04:15:12.614Z,0.96
2022-11-07T04:16:17.688Z,1.04
2022-11-07T04:17:22.049Z,1.09
2022-11-07T04:18:25.139Z,1.24
2022-11-07T04:19:28.522Z,1.02
2022-11-07T04:20:31.700Z,0.96
2022-11-07T04:21:35.388Z,1.11
2022-11-07T04:22:38.175Z,1.10
2022-11-07T04:23:41.469Z,1.11
2022-11-07T04:24:46.283Z,0.95
2022-11-07T04:25:49.766Z,1.20
2022-11-07T04:26:52.855Z,0.75
2022-11-07T04:27:55.824Z,0.75
2022-11-07T04:28:58.900Z,0.88
2022-11-07T04:30:02.427Z,0.97
2022-11-07T04:31:05.325Z,0.92
2022-11-07T04:32:08.354Z,0.86
2022-11-07T04:33:11.235Z,0.93
2022-11-07T04:34:13.995Z,0.92
2022-11-07T04:35:16.768Z,0.85
2022-11-07T04:36:20.137Z,0.98
2022-11-07T04:37:23.846Z,1.08
2022-11-07T04:38:26.826Z,1.11
2022-11-07T04:39:30.297Z,0.92
2022-11-07T04:40:33.181Z,0.97
2022-11-07T04:41:36.161Z,1.16
2022-11-07T04:42:39.345Z,1.08
2022-11-07T04:43:42.733Z,1.04
2022-11-07T04:44:45.813Z,1.13
2022-11-07T04:45:48.498Z,1.19
2022-11-07T04:46:52.166Z,1.15
2022-11-07T04:47:54.945Z,1.16
2022-11-07T04:48:58.113Z,1.12
2022-11-07T04:50:01.010Z,1.23
2022-11-07T04:51:03.770Z,1.25
2022-11-07T04:52:06.983Z,1.55
2022-11-07T04:53:10.432Z,1.27
2022-11-07T04:54:13.426Z,1.13
2022-11-07T04:55:16.500Z,1.42
2022-11-07T04:56:19.270Z,1.31
2022-11-07T04:57:22.053Z,0.84
2022-11-07T04:58:24.816Z,1.03
2022-11-07T04:59:27.519Z,1.04
2022-11-07T05:00:30.263Z,1.00
2022-11-07T05:01:33.472Z,1.02
2022-11-07T05:02:36.599Z,0.95
2022-11-07T05:03:42.095Z,0.91
2022-11-07T05:04:44.107Z,1.05
2022-11-07T05:05:46.994Z,1.02
2022-11-07T05:06:49.869Z,0.97
2022-11-07T05:07:53.131Z,1.22
2022-11-07T05:08:56.226Z,1.12
2022-11-07T05:09:59.509Z,1.04
2022-11-07T05:11:02.681Z,1.02
2022-11-07T05:12:06.086Z,1.08
2022-11-07T05:13:09.036Z,1.26
2022-11-07T05:14:12.047Z,1.29
2022-11-07T05:15:14.915Z,1.38
2022-11-07T05:16:17.630Z,1.05
2022-11-07T05:17:25.507Z,1.15
2022-11-07T05:18:25.772Z,1.26
2022-11-07T05:19:28.952Z,1.10
2022-11-07T05:20:32.136Z,1.05
2022-11-07T05:21:35.027Z,1.02
2022-11-07T05:22:38.095Z,1.14
2022-11-07T05:23:41.109Z,1.25
2022-11-07T05:24:44.460Z,1.18
2022-11-07T05:25:48.149Z,1.15
2022-11-07T05:26:51.638Z,1.02
2022-11-07T05:27:55.457Z,1.04
2022-11-07T05:28:59.012Z,1.05
2022-11-07T05:30:02.340Z,1.16
2022-11-07T05:31:05.801Z,1.27
2022-11-07T05:32:08.795Z,1.06
2022-11-07T05:33:12.809Z,1.02
2022-11-07T05:34:16.571Z,1.13
2022-11-07T05:35:19.869Z,1.23
2022-11-07T05:36:23.050Z,1.19
2022-11-07T05:37:26.113Z,1.27
2022-11-07T05:38:29.223Z,1.00
2022-11-07T05:39:32.381Z,1.15
2022-11-07T05:40:35.975Z,0.95
2022-11-07T05:41:39.057Z,1.08
2022-11-07T05:42:42.853Z,1.14
2022-11-07T05:43:46.547Z,1.14
2022-11-07T05:44:49.833Z,1.13
2022-11-07T05:45:53.116Z,0.95
2022-11-07T05:46:56.417Z,0.93
2022-11-07T05:47:59.482Z,0.83
2022-11-07T05:49:02.566Z,1.05
2022-11-07T05:50:05.854Z,1.17
2022-11-07T05:51:09.628Z,1.15
2022-11-07T05:52:13.234Z,0.91
2022-11-07T05:53:16.545Z,1.01
2022-11-07T05:54:19.964Z,1.11
2022-11-07T05:55:22.979Z,1.00
2022-11-07T05:56:26.174Z,1.00
2022-11-07T05:57:29.343Z,0.92
2022-11-07T05:58:32.324Z,0.95
2022-11-07T05:59:35.516Z,1.21
2022-11-07T06:00:38.477Z,1.14
2022-11-07T06:01:41.614Z,1.27
2022-11-07T06:02:44.576Z,1.21
2022-11-07T06:03:47.406Z,0.91
2022-11-07T06:04:50.108Z,1.00
2022-11-07T06:05:52.966Z,1.33
2022-11-07T06:06:56.242Z,0.88
2022-11-07T06:07:59.134Z,1.12
2022-11-07T06:09:02.082Z,1.17
2022-11-07T06:10:05.285Z,1.18
2022-11-07T06:11:08.155Z,1.06
2022-11-07T06:12:11.232Z,1.08
2022-11-07T06:13:14.634Z,1.30
2022-11-07T06:14:17.912Z,1.25
2022-11-07T06:15:20.680Z,1.46
2022-11-07T06:16:23.652Z,1.17
2022-11-07T06:17:26.837Z,1.25
2022-11-07T06:18:30.128Z,1.12
2022-11-07T06:19:33.506Z,1.47
2022-11-07T06:20:36.593Z,1.32
2022-11-07T06:21:39.362Z,1.25
2022-11-07T06:22:43.281Z,1.61
2022-11-07T06:23:46.747Z,1.27
2022-11-07T06:24:50.750Z,1.09
2022-11-07T06:25:54.223Z,1.18
2022-11-07T06:26:57.706Z,1.35
2022-11-07T06:28:01.615Z,1.36
2022-11-07T06:29:05.097Z,1.21
2022-11-07T06:30:09.229Z,1.35
2022-11-07T06:31:12.689Z,1.33
2022-11-07T06:32:15.865Z,1.33
2022-11-07T06:33:19.831Z,1.13
2022-11-07T06:34:24.075Z,1.28
2022-11-07T06:35:27.671Z,1.18
2022-11-07T06:36:31.048Z,1.21
2022-11-07T06:37:34.351Z,1.22
2022-11-07T06:38:38.542Z,1.19
2022-11-07T06:39:41.731Z,0.99
2022-11-07T06:40:45.122Z,0.95
2022-11-07T06:41:48.502Z,1.33
2022-11-07T06:42:52.204Z,1.22
2022-11-07T06:43:55.901Z,1.28
2022-11-07T06:44:59.282Z,1.31
2022-11-07T06:46:02.790Z,1.39
2022-11-07T06:47:06.560Z,1.28
2022-11-07T06:48:10.154Z,1.29
2022-11-07T06:49:14.195Z,1.04
2022-11-07T06:50:17.251Z,1.04
2022-11-07T06:51:20.023Z,1.22
2022-11-07T06:52:22.933Z,1.24
2022-11-07T06:53:26.085Z,1.15
2022-11-07T06:54:29.369Z,1.24
2022-11-07T06:55:32.347Z,0.92
2022-11-07T06:56:35.614Z,1.21
2022-11-07T06:57:38.505Z,1.07
2022-11-07T06:58:41.370Z,1.22
2022-11-07T06:59:50.458Z,1.05
2022-11-07T07:00:48.948Z,1.21
2022-11-07T07:01:52.088Z,1.14
2022-11-07T07:02:59.304Z,1.46
2022-11-07T07:03:59.847Z,1.60
2022-11-07T07:05:03.146Z,1.26
2022-11-07T07:06:07.134Z,1.18
2022-11-07T07:07:09.895Z,1.27
2022-11-07T07:08:12.876Z,1.08
2022-11-07T07:09:16.476Z,1.10
2022-11-07T07:10:19.554Z,1.17
2022-11-07T07:11:22.318Z,1.15
2022-11-07T07:12:25.418Z,1.15
2022-11-07T07:13:28.384Z,1.21
2022-11-07T07:14:31.355Z,1.16
2022-11-07T07:15:47.766Z,0.99
2022-11-07T07:16:38.747Z,0.96
2022-11-07T07:17:41.412Z,0.98
2022-11-07T07:18:44.194Z,1.27
2022-11-07T07:19:47.066Z,1.21
2022-11-07T07:20:50.344Z,1.13
2022-11-07T07:21:53.221Z,1.15
2022-11-07T07:23:00.258Z,1.19
2022-11-07T07:24:00.412Z,1.47
2022-11-07T07:25:03.072Z,1.12
2022-11-07T07:26:06.147Z,1.15
2022-11-07T07:27:09.644Z,1.12
2022-11-07T07:28:12.414Z,1.11
2022-11-07T07:29:15.409Z,0.91
2022-11-07T07:30:18.223Z,1.48
2022-11-07T07:31:21.344Z,1.36
2022-11-07T07:32:24.421Z,1.19
2022-11-07T07:33:27.152Z,1.08
2022-11-07T07:34:30.381Z,1.39
2022-11-07T07:35:33.259Z,2.21
2022-11-07T07:36:36.546Z,1.70
2022-11-07T07:37:39.303Z,2.34
2022-11-07T07:38:42.489Z,2.88
2022-11-07T07:39:45.155Z,2.60
2022-11-07T07:40:48.866Z,1.33
2022-11-07T07:41:52.250Z,2.20
2022-11-07T07:42:55.521Z,1.88
2022-11-07T07:43:58.409Z,1.74
2022-11-07T07:45:01.588Z,1.65
2022-11-07T07:46:04.575Z,2.27
2022-11-07T07:47:11.415Z,1.54
2022-11-07T07:48:12.975Z,1.69
2022-11-07T07:49:15.746Z,1.62
2022-11-07T07:50:18.622Z,1.98
2022-11-07T07:51:22.187Z,2.02
2022-11-07T07:52:27.321Z,1.82
2022-11-07T07:53:31.108Z,1.50
2022-11-07T07:54:34.920Z,1.66
2022-11-07T07:55:39.325Z,1.51
2022-11-07T07:56:42.905Z,1.23
2022-11-07T07:57:46.705Z,1.16
2022-11-07T07:58:50.502Z,1.41
2022-11-07T07:59:54.298Z,1.76
2022-11-07T08:00:58.017Z,1.57
2022-11-07T08:02:01.362Z,1.36
2022-11-07T08:03:05.589Z,1.48
2022-11-07T08:04:08.896Z,1.48
2022-11-07T08:05:12.907Z,1.39
2022-11-07T08:06:16.473Z,1.49
2022-11-07T08:07:19.853Z,1.52
2022-11-07T08:08:23.546Z,1.42
2022-11-07T08:09:27.137Z,1.28
2022-11-07T08:10:41.944Z,1.56
2022-11-07T08:11:40.619Z,1.59
2022-11-07T08:12:44.981Z,1.50
2022-11-07T08:14:01.036Z,1.91
2022-11-07T08:15:02.108Z,1.48
2022-11-07T08:16:07.011Z,1.68
2022-11-07T08:17:10.402Z,1.35
2022-11-07T08:18:14.098Z,1.52
2022-11-07T08:19:18.229Z,1.42
2022-11-07T08:20:21.584Z,1.61
2022-11-07T08:21:24.970Z,1.44
2022-11-07T08:22:28.875Z,1.35
2022-11-07T08:23:32.876Z,1.51
2022-11-07T08:24:36.867Z,1.62
2022-11-07T08:25:41.284Z,1.53
2022-11-07T08:26:44.672Z,1.63
2022-11-07T08:27:48.768Z,1.56
2022-11-07T08:28:53.223Z,1.56
2022-11-07T08:29:58.102Z,1.46
2022-11-07T08:31:01.595Z,1.48
2022-11-07T08:32:04.874Z,1.42
2022-11-07T08:33:08.031Z,1.82
2022-11-07T08:34:11.961Z,1.45
2022-11-07T08:35:15.572Z,1.46
2022-11-07T08:36:19.045Z,1.64
2022-11-07T08:37:22.628Z,1.84
2022-11-07T08:38:29.697Z,1.59
2022-11-07T08:39:33.092Z,1.59
2022-11-07T08:40:37.501Z,1.62
2022-11-07T08:41:41.503Z,1.53
2022-11-07T08:42:45.095Z,1.37
2022-11-07T08:43:49.197Z,1.34
2022-11-07T08:44:53.195Z,1.36
2022-11-07T08:45:57.408Z,1.50
2022-11-07T08:47:07.295Z,1.28
2022-11-07T08:48:07.065Z,1.23
2022-11-07T08:49:12.990Z,1.26
2022-11-07T08:50:16.372Z,1.31
2022-11-07T08:51:20.280Z,1.15
2022-11-07T08:52:25.821Z,1.29
2022-11-07T08:53:37.409Z,1.34
2022-11-07T08:54:41.086Z,1.40
2022-11-07T08:55:44.675Z,1.59
2022-11-07T08:56:48.454Z,1.46
2022-11-07T08:57:52.060Z,1.39
2022-11-07T08:58:55.653Z,1.41
2022-11-07T08:59:59.450Z,1.55
2022-11-07T09:01:03.647Z,1.44
2022-11-07T09:03:44.237Z,1.32
2022-11-07T09:04:27.805Z,1.49
2022-11-07T09:05:30.954Z,1.79
2022-11-07T09:06:34.034Z,1.52
2022-11-07T09:07:36.897Z,1.53
2022-11-07T09:08:39.674Z,1.42
2022-11-07T09:09:42.838Z,1.48
2022-11-07T09:10:46.225Z,1.65
2022-11-07T09:11:50.238Z,1.40
2022-11-07T09:12:54.043Z,1.44
2022-11-07T09:13:57.409Z,1.44
2022-11-07T09:15:01.920Z,1.53
2022-11-07T09:16:05.204Z,1.65
2022-11-07T09:17:08.792Z,1.58
2022-11-07T09:18:12.807Z,1.50
2022-11-07T09:19:16.699Z,1.49
2022-11-07T09:20:19.978Z,1.27
2022-11-07T09:21:23.103Z,1.65
2022-11-07T09:22:27.356Z,1.62
2022-11-07T09:23:31.162Z,1.41
2022-11-07T09:24:35.288Z,1.46
2022-11-07T09:25:39.274Z,1.36
2022-11-07T09:26:43.165Z,1.27
2022-11-07T09:27:49.316Z,1.20
2022-11-07T09:29:00.820Z,1.34
2022-11-07T09:30:01.037Z,1.33
2022-11-07T09:31:04.493Z,1.42
2022-11-07T09:32:38.309Z,1.65
2022-11-07T09:33:15.027Z,1.42
2022-11-07T09:34:18.743Z,1.65
2022-11-07T09:35:22.757Z,1.44
2022-11-07T09:36:26.333Z,1.32
2022-11-07T09:37:29.840Z,1.35
2022-11-07T09:38:33.009Z,1.51
2022-11-07T09:39:36.398Z,1.28
2022-11-07T09:40:39.991Z,1.59
2022-11-07T09:41:43.488Z,1.68
2022-11-07T09:42:47.163Z,1.77
2022-11-07T09:43:50.352Z,1.48
2022-11-07T09:44:53.747Z,1.28
2022-11-07T09:45:57.327Z,1.92
2022-11-07T09:47:00.733Z,2.07
2022-11-07T09:48:04.316Z,1.77
2022-11-07T09:49:07.390Z,1.84
2022-11-07T09:50:10.587Z,1.73
2022-11-07T09:51:16.216Z,1.90
2022-11-07T09:52:19.390Z,1.75
2022-11-07T09:53:23.712Z,1.83
2022-11-07T09:54:26.993Z,1.66
2022-11-07T09:55:30.382Z,1.73
2022-11-07T09:56:34.274Z,1.60
2022-11-07T09:57:38.276Z,1.70
2022-11-07T09:58:41.977Z,1.61
2022-11-07T09:59:45.662Z,2.03
2022-11-07T10:00:48.895Z,1.86
2022-11-07T10:01:52.493Z,1.92
2022-11-07T10:02:55.936Z,1.68
2022-11-07T10:04:27.671Z,1.70
2022-11-07T10:05:04.949Z,1.79
2022-11-07T10:06:08.845Z,1.84
2022-11-07T10:07:12.537Z,1.70
2022-11-07T10:08:15.734Z,1.74
2022-11-07T10:09:18.805Z,1.77
2022-11-07T10:10:21.772Z,1.90
2022-11-07T10:11:25.371Z,1.60
2022-11-07T10:12:28.969Z,1.48
2022-11-07T10:13:31.931Z,1.91
2022-11-07T10:14:35.936Z,1.68
2022-11-07T10:15:42.809Z,1.95
2022-11-07T10:16:45.922Z,2.11
2022-11-07T10:17:49.579Z,1.93
2022-11-07T10:18:52.964Z,1.84
2022-11-07T10:19:56.456Z,1.73
2022-11-07T10:21:23.024Z,1.70
2022-11-07T10:22:04.769Z,1.64
2022-11-07T10:23:08.252Z,1.63
2022-11-07T10:24:11.650Z,1.65
2022-11-07T10:25:15.031Z,1.89
2022-11-07T10:26:18.517Z,2.16
2022-11-07T10:27:21.807Z,1.80
2022-11-07T10:28:24.989Z,1.80
2022-11-07T10:29:28.570Z,1.59
2022-11-07T10:30:32.066Z,1.81
2022-11-07T10:31:35.657Z,1.88
2022-11-07T10:32:38.931Z,1.89
2022-11-07T10:33:42.016Z,1.88
2022-11-07T10:34:50.226Z,1.78
2022-11-07T10:35:50.949Z,1.86
2022-11-07T10:36:54.318Z,1.72
2022-11-07T10:37:57.818Z,1.85
2022-11-07T10:39:00.886Z,2.08
2022-11-07T10:40:11.925Z,1.68
2022-11-07T10:41:13.818Z,1.90
2022-11-07T10:42:17.397Z,2.02
2022-11-07T10:43:20.893Z,2.01
2022-11-07T10:44:24.791Z,1.94
2022-11-07T10:45:28.073Z,1.95
2022-11-07T10:46:31.771Z,1.84
2022-11-07T10:47:35.052Z,1.86
2022-11-07T10:48:38.227Z,1.55
2022-11-07T10:49:41.417Z,1.74
2022-11-07T10:50:44.600Z,1.70
2022-11-07T10:51:48.093Z,1.76
2022-11-07T10:52:51.588Z,1.65
2022-11-07T10:53:54.967Z,1.56
2022-11-07T10:54:58.453Z,1.30
2022-11-07T10:56:01.530Z,1.65
2022-11-07T10:57:04.934Z,1.77
2022-11-07T10:58:08.416Z,1.49
2022-11-07T10:59:11.698Z,1.57
2022-11-07T11:00:14.974Z,1.98
2022-11-07T11:01:18.326Z,1.67
2022-11-07T11:02:22.029Z,1.59
2022-11-07T11:03:28.974Z,1.54
2022-11-07T11:04:30.265Z,1.64
2022-11-07T11:05:33.659Z,1.65
2022-11-07T11:06:37.774Z,1.83
2022-11-07T11:07:41.240Z,1.69
2022-11-07T11:08:44.422Z,1.58
2022-11-07T11:09:47.816Z,1.73
2022-11-07T11:10:51.193Z,1.75
2022-11-07T11:11:55.097Z,1.46
2022-11-07T11:12:58.285Z,1.50
2022-11-07T11:14:01.674Z,1.47
2022-11-07T11:15:05.152Z,1.83
2022-11-07T11:16:08.445Z,1.83
2022-11-07T11:17:11.849Z,1.90
2022-11-07T11:18:15.397Z,1.91
2022-11-07T11:19:19.015Z,1.56
2022-11-07T11:20:21.882Z,1.70
2022-11-07T11:21:25.063Z,1.74
2022-11-07T11:22:29.255Z,1.48
2022-11-07T11:23:32.548Z,1.65
2022-11-07T11:24:35.831Z,1.74
2022-11-07T11:25:38.922Z,1.52
2022-11-07T11:26:42.117Z,1.78
2022-11-07T11:27:45.172Z,1.62
2022-11-07T11:28:48.563Z,1.55
2022-11-07T11:29:51.553Z,1.65
2022-11-07T11:30:54.824Z,1.77
2022-11-07T11:31:57.910Z,1.51
2022-11-07T11:33:01.282Z,1.88
2022-11-07T11:34:04.182Z,1.56
2022-11-07T11:35:07.553Z,1.72
2022-11-07T11:36:11.250Z,1.67
2022-11-07T11:37:15.147Z,1.66
2022-11-07T11:38:18.347Z,1.82
2022-11-07T11:39:21.613Z,1.69
2022-11-07T11:40:24.795Z,1.57
2022-11-07T11:41:27.980Z,1.56
2022-11-07T11:42:31.258Z,1.77
2022-11-07T11:43:34.748Z,1.67
2022-11-07T11:44:38.231Z,1.90
2022-11-07T11:45:41.837Z,1.64
2022-11-07T11:46:45.519Z,1.99
2022-11-07T11:47:49.030Z,1.72
2022-11-07T11:48:52.195Z,1.82
2022-11-07T11:49:55.688Z,1.76
2022-11-07T11:50:59.308Z,1.70
2022-11-07T11:52:02.788Z,1.78
2022-11-07T11:53:06.378Z,1.94
2022-11-07T11:54:10.269Z,1.65
2022-11-07T11:55:14.046Z,1.65
2022-11-07T11:56:17.347Z,2.25
2022-11-07T11:57:20.622Z,2.07
2022-11-07T11:58:23.922Z,2.15
2022-11-07T11:59:27.303Z,2.16
2022-11-07T12:00:30.982Z,1.93
2022-11-07T12:01:34.478Z,1.86
2022-11-07T12:02:38.072Z,1.97
2022-11-07T12:03:41.488Z,2.32
2022-11-07T12:04:44.975Z,1.79
2022-11-07T12:05:48.126Z,1.87
2022-11-07T12:06:51.499Z,1.86
2022-11-07T12:07:55.102Z,1.92
2022-11-07T12:08:58.382Z,2.25
2022-11-07T12:10:01.798Z,2.34
2022-11-07T12:11:05.265Z,2.19
2022-11-07T12:12:08.548Z,1.99
2022-11-07T12:13:12.517Z,1.93
2022-11-07T12:14:15.936Z,2.07
2022-11-07T12:15:19.723Z,2.02
2022-11-07T12:16:23.233Z,1.79
2022-11-07T12:17:26.497Z,1.83
2022-11-07T12:18:30.204Z,1.99
2022-11-07T12:19:33.578Z,1.77
2022-11-07T12:20:37.176Z,2.02
2022-11-07T12:21:44.655Z,1.95
2022-11-07T12:22:45.679Z,1.97
2022-11-07T12:23:48.983Z,2.43
2022-11-07T12:24:52.861Z,2.55
2022-11-07T12:25:55.953Z,2.08
2022-11-07T12:26:59.130Z,2.05
2022-11-07T12:28:02.308Z,2.25
2022-11-07T12:29:05.608Z,2.01
2022-11-07T12:30:08.977Z,1.75
2022-11-07T12:31:12.065Z,1.79
2022-11-07T12:32:15.546Z,2.19
2022-11-07T12:33:19.661Z,2.40
2022-11-07T12:34:22.739Z,2.42
2022-11-07T12:35:26.632Z,2.73
2022-11-07T12:36:30.835Z,2.79
2022-11-07T12:37:34.693Z,3.23
2022-11-07T12:38:38.367Z,3.49
2022-11-07T12:39:42.238Z,2.61
2022-11-07T12:40:45.712Z,2.88
2022-11-07T12:41:49.518Z,3.02
2022-11-07T12:42:55.952Z,3.21
2022-11-07T12:43:57.818Z,2.61
2022-11-07T12:45:01.125Z,2.18
2022-11-07T12:46:04.389Z,2.48
2022-11-07T12:47:08.096Z,2.48
2022-11-07T12:48:13.398Z,2.58
2022-11-07T12:49:15.522Z,2.51
2022-11-07T12:50:18.687Z,2.77
2022-11-07T12:51:22.768Z,2.89
2022-11-07T12:52:27.287Z,2.61
2022-11-07T12:53:30.454Z,2.97
2022-11-07T12:54:33.740Z,2.92
2022-11-07T12:55:37.234Z,2.64
2022-11-07T12:56:40.203Z,2.58
2022-11-07T12:57:44.310Z,2.37
2022-11-07T12:58:47.434Z,2.41
2022-11-07T12:59:50.462Z,2.75
2022-11-07T13:00:53.804Z,2.51
2022-11-07T13:01:57.040Z,2.15
2022-11-07T13:03:00.110Z,2.52
2022-11-07T13:04:03.397Z,2.38
2022-11-07T13:05:07.098Z,2.10
2022-11-07T13:06:10.373Z,2.06
2022-11-07T13:07:13.876Z,1.92
2022-11-07T13:08:17.142Z,1.82
2022-11-07T13:09:21.044Z,2.09
2022-11-07T13:10:24.237Z,2.08
2022-11-07T13:11:27.265Z,2.21
2022-11-07T13:12:30.484Z,2.54
2022-11-07T13:13:33.986Z,2.51
2022-11-07T13:14:37.146Z,2.17
2022-11-07T13:16:08.835Z,2.15
2022-11-07T13:16:45.149Z,2.30
2022-11-07T13:17:48.656Z,2.53
2022-11-07T13:18:52.036Z,2.54
2022-11-07T13:19:55.137Z,2.26
2022-11-07T13:20:58.733Z,2.23
2022-11-07T13:22:02.612Z,2.29
2022-11-07T13:23:06.094Z,2.33
2022-11-07T13:24:09.480Z,2.25
2022-11-07T13:25:16.769Z,2.51
2022-11-07T13:26:45.794Z,2.46
2022-11-07T13:27:22.755Z,2.35
2022-11-07T13:28:27.030Z,2.31
2022-11-07T13:29:30.617Z,2.47
2022-11-07T13:30:34.106Z,2.48
2022-11-07T13:31:37.297Z,2.18
2022-11-07T13:32:40.423Z,2.22
2022-11-07T13:33:43.645Z,2.08
2022-11-07T13:34:47.745Z,1.78
2022-11-07T13:35:50.939Z,2.18
2022-11-07T13:36:54.837Z,2.25
2022-11-07T13:37:58.625Z,2.36
2022-11-07T13:39:02.622Z,2.21
2022-11-07T13:40:06.009Z,2.11
2022-11-07T13:41:09.637Z,1.58
2022-11-07T13:42:12.682Z,1.74
2022-11-07T13:43:17.194Z,2.05
2022-11-07T13:44:20.898Z,1.88
2022-11-07T13:45:23.871Z,2.06
2022-11-07T13:46:27.060Z,2.15
2022-11-07T13:47:30.337Z,1.95
2022-11-07T13:48:34.041Z,1.95
2022-11-07T13:49:43.983Z,2.14
2022-11-07T13:50:42.753Z,1.65
2022-11-07T13:51:46.037Z,1.81
2022-11-07T13:52:49.734Z,2.15
2022-11-07T13:53:53.717Z,2.31
2022-11-07T13:54:57.426Z,1.71
2022-11-07T13:56:00.805Z,1.88
2022-11-07T13:57:04.705Z,1.57
2022-11-07T13:58:08.194Z,1.62
2022-11-07T13:59:11.783Z,1.76
2022-11-07T14:00:15.739Z,1.87
2022-11-07T14:01:19.534Z,1.82
2022-11-07T14:02:23.234Z,1.71
2022-11-07T14:03:26.674Z,1.63
2022-11-07T14:04:32.081Z,1.64
2022-11-07T14:05:35.489Z,1.95